createdAt,value
2022-10-03T00:00:56.789Z,100641.94
2022-10-03T00:03:23.408Z,100652.41
2022-10-03T00:05:49.655Z,100653.34
2022-10-03T00:08:16.186Z,100655.28
2022-10-03T00:10:42.454Z,100650.75
2022-10-03T00:13:08.706Z,100662.06
2022-10-03T00:15:35.005Z,100666.13
2022-10-03T00:18:02.206Z,100662.94
2022-10-03T00:20:28.469Z,100662.59
2022-10-03T00:22:54.719Z,100662.72
2022-10-03T00:25:20.978Z,100673.56
2022-10-03T00:27:47.231Z,100665.19
2022-10-03T00:30:13.494Z,100670.09
2022-10-03T00:32:41.136Z,100676.16
2022-10-03T00:35:08.007Z,100675.59
2022-10-03T00:37:35.084Z,100683.75
2022-10-03T00:40:01.275Z,100681.41
2022-10-03T00:42:27.529Z,100693.34
2022-10-03T00:44:53.903Z,100695.16
2022-10-03T00:47:20.175Z,100686.91
2022-10-03T00:49:46.421Z,100690.75
2022-10-03T00:52:12.677Z,100688.19
2022-10-03T00:54:38.973Z,100686.91
2022-10-03T00:57:05.250Z,100702.41
2022-10-03T00:59:31.496Z,100694.44
2022-10-03T01:01:57.844Z,100700.44
2022-10-03T01:04:24.173Z,100702.28
2022-10-03T01:06:50.484Z,100695.72
2022-10-03T01:09:16.738Z,100708.19
2022-10-03T01:11:43.236Z,100688.19
2022-10-03T01:14:09.565Z,100686.47
2022-10-03T01:16:37.787Z,100701.13
2022-10-03T01:19:04.044Z,100687.03
2022-10-03T01:21:30.311Z,100697.66
2022-10-03T01:23:56.571Z,100692.94
2022-10-03T01:26:22.830Z,100695.53
2022-10-03T01:29:07.965Z,100689.38
2022-10-03T01:31:34.399Z,100690.56
2022-10-03T01:34:00.728Z,100694.09
2022-10-03T01:36:27.012Z,100689.06
2022-10-03T01:38:53.643Z,100697.03
2022-10-03T01:41:20.434Z,100690.03
2022-10-03T01:43:46.691Z,100695.94
2022-10-03T01:46:13.029Z,100694.97
2022-10-03T01:48:39.380Z,100699.59
2022-10-03T01:51:05.622Z,100701.94
2022-10-03T01:53:31.888Z,100693.69
2022-10-03T01:55:58.143Z,100697.75
2022-10-03T01:58:26.020Z,100692.84
2022-10-03T02:00:52.316Z,100692.41
2022-10-03T02:03:18.595Z,100689.38
2022-10-03T02:05:44.852Z,100706.06
2022-10-03T02:08:17.097Z,100700.91
2022-10-03T02:10:43.343Z,100704.00
2022-10-03T02:13:09.636Z,100702.16
2022-10-03T02:15:35.897Z,100710.13
2022-10-03T02:18:02.282Z,100710.78
2022-10-03T02:20:28.699Z,100722.75
2022-10-03T02:22:55.005Z,100723.56
2022-10-03T02:25:21.255Z,100721.75
2022-10-03T02:27:47.532Z,100727.78
2022-10-03T02:30:13.792Z,100721.75
2022-10-03T02:32:40.506Z,100725.31
2022-10-03T02:35:07.800Z,100724.00
2022-10-03T02:37:34.046Z,100733.38
2022-10-03T02:40:00.322Z,100726.66
2022-10-03T02:42:26.611Z,100734.09
2022-10-03T02:44:52.887Z,100727.38
2022-10-03T02:47:19.186Z,100726.66
2022-10-03T02:49:46.625Z,100739.34
2022-10-03T02:52:12.896Z,100735.50
2022-10-03T02:54:39.152Z,100741.09
2022-10-03T02:57:05.401Z,100741.94
2022-10-03T02:59:31.660Z,100741.09
2022-10-03T03:01:57.930Z,100738.53
2022-10-03T03:04:24.220Z,100738.84
2022-10-03T03:06:52.654Z,100744.13
2022-10-03T03:09:18.929Z,100739.81
2022-10-03T03:11:47.313Z,100748.81
2022-10-03T03:14:13.567Z,100758.44
2022-10-03T03:16:40.122Z,100758.06
2022-10-03T03:19:06.443Z,100756.78
2022-10-03T03:21:32.692Z,100760.13
2022-10-03T03:23:59.065Z,100764.44
2022-10-03T03:26:28.035Z,100760.44
2022-10-03T03:28:55.791Z,100756.38
2022-10-03T03:31:22.267Z,100765.41
2022-10-03T03:33:51.354Z,100770.69
2022-10-03T03:36:17.602Z,100759.81
2022-10-03T03:38:43.850Z,100756.69
2022-10-03T03:41:10.095Z,100772.47
2022-10-03T03:43:36.356Z,100773.56
2022-10-03T03:46:02.672Z,100773.81
2022-10-03T03:48:28.966Z,100776.41
2022-10-03T03:50:57.092Z,100773.94
2022-10-03T03:53:23.280Z,100771.03
2022-10-03T03:55:49.529Z,100769.00
2022-10-03T03:58:15.849Z,100781.28
2022-10-03T04:00:43.042Z,100774.97
2022-10-03T04:03:09.343Z,100778.50
2022-10-03T04:05:35.648Z,100773.81
2022-10-03T04:08:01.922Z,100771.34
2022-10-03T04:10:28.173Z,100784.03
2022-10-03T04:12:55.868Z,100780.69
2022-10-03T04:15:22.120Z,100781.00
2022-10-03T04:18:07.148Z,100783.69
2022-10-03T04:20:33.408Z,100783.50
2022-10-03T04:23:00.411Z,100786.97
2022-10-03T04:25:26.710Z,100780.28
2022-10-03T04:27:53.021Z,100778.09
2022-10-03T04:30:19.896Z,100788.22
2022-10-03T04:32:46.231Z,100783.56
2022-10-03T04:35:12.487Z,100785.13
2022-10-03T04:37:38.756Z,100782.63
2022-10-03T04:40:05.008Z,100789.47
2022-10-03T04:42:31.260Z,100791.28
2022-10-03T04:44:57.599Z,100789.97
2022-10-03T04:47:23.842Z,100791.56
2022-10-03T04:49:52.962Z,100786.34
2022-10-03T04:52:19.589Z,100776.13
2022-10-03T04:54:48.190Z,100794.72
2022-10-03T04:57:14.466Z,100790.31
2022-10-03T04:59:40.705Z,100798.16
2022-10-03T05:02:07.018Z,100796.25
2022-10-03T05:04:33.311Z,100803.88
2022-10-03T05:07:00.547Z,100794.94
2022-10-03T05:09:26.811Z,100799.03
2022-10-03T05:11:53.807Z,100802.38
2022-10-03T05:14:20.188Z,100799.47
2022-10-03T05:16:46.504Z,100799.84
2022-10-03T05:19:13.572Z,100800.63
2022-10-03T05:21:40.269Z,100802.25
2022-10-03T05:24:06.729Z,100809.25
2022-10-03T05:26:44.650Z,100811.44
2022-10-03T05:29:11.899Z,100806.59
2022-10-03T05:31:38.593Z,100815.50
2022-10-03T05:34:05.099Z,100822.56
2022-10-03T05:36:31.408Z,100821.84
2022-10-03T05:38:57.663Z,100816.44
2022-10-03T05:41:26.116Z,100826.56
2022-10-03T05:43:54.368Z,100835.25
2022-10-03T05:46:20.690Z,100830.06
2022-10-03T05:48:46.980Z,100831.75
2022-10-03T05:51:13.330Z,100834.28
2022-10-03T05:53:39.736Z,100843.25
2022-10-03T05:56:06.052Z,100838.19
2022-10-03T05:58:32.349Z,100839.13
2022-10-03T06:00:58.726Z,100849.69
2022-10-03T06:03:25.003Z,100855.22
2022-10-03T06:05:51.255Z,100852.47
2022-10-03T06:08:18.002Z,100859.47
2022-10-03T06:10:44.537Z,100859.13
2022-10-03T06:13:11.290Z,100851.47
2022-10-03T06:15:38.346Z,100857.47
2022-10-03T06:18:04.604Z,100860.69
2022-10-03T06:20:30.864Z,100865.00
2022-10-03T06:23:00.405Z,100870.97
2022-10-03T06:25:28.712Z,100880.81
2022-10-03T06:27:55.003Z,100867.72
2022-10-03T06:30:22.006Z,100874.91
2022-10-03T06:32:48.385Z,100881.13
2022-10-03T06:35:15.678Z,100884.41
2022-10-03T06:37:41.940Z,100890.72
2022-10-03T06:40:10.206Z,100890.72
2022-10-03T06:42:37.466Z,100886.59
2022-10-03T06:45:03.729Z,100898.09
2022-10-03T06:47:31.382Z,100884.97
2022-10-03T06:49:57.732Z,100891.91
2022-10-03T06:52:24.548Z,100898.09
2022-10-03T06:54:50.808Z,100897.59
2022-10-03T06:57:17.059Z,100903.69
2022-10-03T06:59:43.312Z,100897.47
2022-10-03T07:02:10.054Z,100916.31
2022-10-03T07:04:36.346Z,100906.38
2022-10-03T07:07:05.168Z,100905.59
2022-10-03T07:09:31.428Z,100907.31
2022-10-03T07:11:57.703Z,100912.72
2022-10-03T07:14:25.034Z,100912.84
2022-10-03T07:16:51.316Z,100907.13
2022-10-03T07:19:17.710Z,100912.13
2022-10-03T07:21:43.954Z,100906.22
2022-10-03T07:24:10.358Z,100904.50
2022-10-03T07:26:36.634Z,100909.16
2022-10-03T07:29:02.901Z,100914.44
2022-10-03T07:31:29.235Z,100915.97
2022-10-03T07:33:55.581Z,100903.69
2022-10-03T07:36:40.577Z,100910.28
2022-10-03T07:39:07.103Z,100917.88
2022-10-03T07:41:33.844Z,100930.28
2022-10-03T07:44:00.112Z,100928.06
2022-10-03T07:46:26.396Z,100928.97
2022-10-03T07:48:52.678Z,100947.34
2022-10-03T07:51:18.955Z,100942.34
2022-10-03T07:53:45.212Z,100944.09
2022-10-03T07:56:11.474Z,100934.19
2022-10-03T07:58:37.877Z,100942.88
2022-10-03T08:01:04.887Z,100941.13
2022-10-03T08:03:32.229Z,100945.00
2022-10-03T08:05:58.540Z,100936.25
2022-10-03T08:08:24.819Z,100938.38
2022-10-03T08:10:51.078Z,100948.69
2022-10-03T08:13:17.335Z,100946.09
2022-10-03T08:15:43.710Z,100944.59
2022-10-03T08:18:10.026Z,100943.88
2022-10-03T08:20:36.283Z,100947.84
2022-10-03T08:23:02.670Z,100954.28
2022-10-03T08:25:28.932Z,100954.91
2022-10-03T08:27:55.271Z,100951.75
2022-10-03T08:30:21.926Z,100954.25
2022-10-03T08:32:48.937Z,100958.56
2022-10-03T08:35:15.567Z,100956.72
2022-10-03T08:37:41.859Z,100961.25
2022-10-03T08:40:09.482Z,100951.84
2022-10-03T08:42:35.756Z,100957.03
2022-10-03T08:45:02.081Z,100964.91
2022-10-03T08:47:28.345Z,100957.03
2022-10-03T08:49:54.620Z,100961.75
2022-10-03T08:52:21.410Z,100960.34
2022-10-03T08:54:47.697Z,100961.56
2022-10-03T08:57:13.948Z,100962.84
2022-10-03T08:59:40.266Z,100959.16
2022-10-03T09:02:06.614Z,100957.97
2022-10-03T09:04:32.950Z,100969.84
2022-10-03T09:07:16.565Z,100955.63
2022-10-03T09:09:44.105Z,100962.31
2022-10-03T09:12:10.367Z,100965.06
2022-10-03T09:14:36.611Z,100971.81
2022-10-03T09:17:02.872Z,100972.88
2022-10-03T09:19:29.380Z,100959.91
2022-10-03T09:21:55.645Z,100971.34
2022-10-03T09:24:21.899Z,100967.00
2022-10-03T09:26:48.202Z,100971.69
2022-10-03T09:29:14.845Z,100961.66
2022-10-03T09:31:42.599Z,100970.94
2022-10-03T09:34:09.157Z,100970.94
2022-10-03T09:36:35.639Z,100968.75
2022-10-03T09:39:01.899Z,100971.88
2022-10-03T09:41:31.130Z,100962.88
2022-10-03T09:43:57.387Z,100961.84
2022-10-03T09:46:23.665Z,100966.28
2022-10-03T09:48:50.431Z,100970.78
2022-10-03T09:51:16.694Z,100962.84
2022-10-03T09:53:43.396Z,100968.63
2022-10-03T09:56:09.656Z,100962.13
2022-10-03T09:58:37.323Z,100966.19
2022-10-03T10:01:03.639Z,100956.25
2022-10-03T10:03:30.010Z,100964.19
2022-10-03T10:05:56.328Z,100968.44
2022-10-03T10:08:22.601Z,100966.56
2022-10-03T10:10:49.076Z,100973.44
2022-10-03T10:13:15.340Z,100970.25
2022-10-03T10:15:41.607Z,100973.91
2022-10-03T10:18:07.907Z,100978.41
2022-10-03T10:20:34.225Z,100979.59
2022-10-03T10:23:00.472Z,100980.53
2022-10-03T10:25:26.739Z,100980.34
2022-10-03T10:27:54.561Z,100977.84
2022-10-03T10:30:21.018Z,100966.84
2022-10-03T10:32:47.291Z,100964.53
2022-10-03T10:35:15.147Z,100967.44
2022-10-03T10:37:46.065Z,100956.28
2022-10-03T10:40:12.679Z,100958.75
2022-10-03T10:42:39.013Z,100955.09
2022-10-03T10:45:05.269Z,100958.53
2022-10-03T10:47:31.530Z,100956.53
2022-10-03T10:49:57.876Z,100953.31
2022-10-03T10:52:24.321Z,100949.06
2022-10-03T10:54:51.161Z,100974.91
2022-10-03T10:57:17.439Z,100981.28
2022-10-03T10:59:43.704Z,100969.63
2022-10-03T11:02:09.959Z,100964.00
2022-10-03T11:04:36.269Z,100961.56
2022-10-03T11:07:02.573Z,100966.19
2022-10-03T11:09:28.851Z,100958.34
2022-10-03T11:11:55.128Z,100967.91
2022-10-03T11:14:21.392Z,100965.94
2022-10-03T11:16:47.798Z,100972.56
2022-10-03T11:19:14.303Z,100965.28
2022-10-03T11:21:40.690Z,100962.78
2022-10-03T11:24:06.971Z,100974.50
2022-10-03T11:26:33.482Z,100965.47
2022-10-03T11:28:59.733Z,100964.13
2022-10-03T11:31:27.787Z,100971.91
2022-10-03T11:33:53.990Z,100968.50
2022-10-03T11:36:21.377Z,100963.19
2022-10-03T11:38:47.635Z,100982.38
2022-10-03T11:41:13.892Z,100977.69
2022-10-03T11:43:40.139Z,100970.75
2022-10-03T11:46:06.471Z,100973.91
2022-10-03T11:48:32.764Z,100960.09
2022-10-03T11:50:59.145Z,100972.25
2022-10-03T11:53:25.391Z,100975.66
2022-10-03T11:55:51.698Z,100979.47
2022-10-03T11:58:18.476Z,100973.78
2022-10-03T12:00:44.887Z,100968.91
2022-10-03T12:03:13.594Z,100979.00
2022-10-03T12:05:39.954Z,100973.59
2022-10-03T12:08:25.198Z,100969.41
2022-10-03T12:10:51.474Z,100968.53
2022-10-03T12:13:18.126Z,100975.06
2022-10-03T12:15:44.428Z,100968.44
2022-10-03T12:18:10.814Z,100971.28
2022-10-03T12:20:37.060Z,100972.16
2022-10-03T12:23:03.341Z,100973.22
2022-10-03T12:25:30.216Z,100975.34
2022-10-03T12:27:56.518Z,100972.38
2022-10-03T12:30:22.797Z,100978.56
2022-10-03T12:32:49.637Z,100967.97
2022-10-03T12:35:15.931Z,100966.50
2022-10-03T12:37:42.305Z,100965.16
2022-10-03T12:40:10.608Z,100968.94
2022-10-03T12:42:37.339Z,100972.38
2022-10-03T12:45:03.594Z,100974.22
2022-10-03T12:47:53.858Z,100973.13
2022-10-03T12:50:16.090Z,100976.28
2022-10-03T12:52:43.178Z,100973.59
2022-10-03T12:55:09.361Z,100968.44
2022-10-03T12:57:36.009Z,100971.16
2022-10-03T13:00:02.263Z,100986.22
2022-10-03T13:02:30.582Z,100981.56
2022-10-03T13:04:56.958Z,100975.06
2022-10-03T13:07:23.244Z,100977.84
2022-10-03T13:09:49.735Z,100976.78
2022-10-03T13:12:16.623Z,100975.81
2022-10-03T13:14:43.598Z,100970.41
2022-10-03T13:17:09.856Z,100973.97
2022-10-03T13:19:36.112Z,100975.91
2022-10-03T13:22:07.146Z,100976.53
2022-10-03T13:24:33.451Z,100969.19
2022-10-03T13:26:59.703Z,100971.19
2022-10-03T13:29:26.035Z,100965.53
2022-10-03T13:31:55.107Z,100956.25
2022-10-03T13:34:21.304Z,100959.28
2022-10-03T13:36:47.590Z,100959.28
2022-10-03T13:39:13.848Z,100953.88
2022-10-03T13:41:42.134Z,100953.47
2022-10-03T13:47:13.952Z,100947.53
2022-10-03T13:49:40.389Z,100951.63
2022-10-03T13:52:07.408Z,100944.25
2022-10-03T13:54:33.728Z,100944.25
2022-10-03T13:57:00.095Z,100939.94
2022-10-03T13:59:26.359Z,100951.34
2022-10-03T14:01:52.828Z,100955.66
2022-10-03T14:04:19.193Z,100946.56
2022-10-03T14:06:46.856Z,100949.19
2022-10-03T14:09:13.129Z,100950.03
2022-10-03T14:11:39.676Z,100957.78
2022-10-03T14:14:06.475Z,100956.63
2022-10-03T14:16:32.900Z,100959.72
2022-10-03T14:18:59.168Z,100962.09
2022-10-03T14:21:25.584Z,100968.22
2022-10-03T14:23:51.841Z,100970.41
2022-10-03T14:26:18.120Z,100973.66
2022-10-03T14:28:44.395Z,100966.97
2022-10-03T14:31:10.736Z,100963.53
2022-10-03T14:33:37.075Z,100953.97
2022-10-03T14:36:03.363Z,100956.06
2022-10-03T14:38:49.584Z,100948.69
2022-10-03T14:41:15.847Z,100953.94
2022-10-03T14:43:42.121Z,100957.78
2022-10-03T14:46:08.406Z,100945.59
2022-10-03T14:48:35.677Z,100956.66
2022-10-03T14:51:05.178Z,100959.81
2022-10-03T14:53:31.527Z,100950.91
2022-10-03T14:55:57.829Z,100957.06
2022-10-03T14:58:24.135Z,100952.38
2022-10-03T15:00:51.096Z,100943.16
2022-10-03T15:03:17.515Z,100951.00
2022-10-03T15:05:43.862Z,100954.34
2022-10-03T15:08:10.106Z,100960.97
2022-10-03T15:10:36.791Z,100961.44
2022-10-03T15:13:03.094Z,100949.28
2022-10-03T15:15:29.392Z,100954.19
2022-10-03T15:17:56.046Z,100948.91
2022-10-03T15:20:22.394Z,100945.81
2022-10-03T15:22:48.648Z,100954.94
2022-10-03T15:25:15.002Z,100960.19
2022-10-03T15:27:41.260Z,100954.97
2022-10-03T15:30:07.534Z,100957.47
2022-10-03T15:32:33.803Z,100961.22
2022-10-03T15:35:00.542Z,100960.81
2022-10-03T15:37:26.814Z,100959.22
2022-10-03T15:39:53.468Z,100952.47
2022-10-03T15:42:20.043Z,100959.75
2022-10-03T15:44:50.188Z,100961.72
2022-10-03T15:47:16.464Z,100944.59
2022-10-03T15:49:42.751Z,100941.53
2022-10-03T15:52:09.011Z,100948.53
2022-10-03T15:54:38.609Z,100950.25
2022-10-03T15:57:05.102Z,100941.41
2022-10-03T15:59:33.483Z,100936.97
2022-10-03T16:01:59.836Z,100938.19
2022-10-03T16:04:26.154Z,100934.06
2022-10-03T16:06:52.922Z,100941.78
2022-10-03T16:09:19.569Z,100943.75
2022-10-03T16:11:45.842Z,100944.34
2022-10-03T16:14:12.117Z,100941.16
2022-10-03T16:16:38.405Z,100938.56
2022-10-03T16:19:04.713Z,100941.41
2022-10-03T16:21:30.965Z,100942.63
2022-10-03T16:23:57.220Z,100942.00
2022-10-03T16:26:23.472Z,100942.63
2022-10-03T16:28:50.540Z,100939.09
2022-10-03T16:31:17.325Z,100938.34
2022-10-03T16:33:43.601Z,100940.16
2022-10-03T16:36:10.855Z,100935.63
2022-10-03T16:38:37.103Z,100944.09
2022-10-03T16:41:03.360Z,100942.50
2022-10-03T16:43:29.916Z,100932.16
2022-10-03T16:45:56.216Z,100943.78
2022-10-03T16:48:41.147Z,100947.41
2022-10-03T16:51:07.448Z,100952.72
2022-10-03T16:53:33.723Z,100943.13
2022-10-03T16:56:00.517Z,100955.19
2022-10-03T16:58:26.917Z,100954.59
2022-10-03T17:01:08.993Z,100947.44
2022-10-03T17:03:39.460Z,100958.84
2022-10-03T17:06:07.203Z,100960.97
2022-10-03T17:08:41.646Z,100968.59
2022-10-03T17:11:08.653Z,100971.06
2022-10-03T17:13:35.136Z,100964.75
2022-10-03T17:16:01.450Z,100951.34
2022-10-03T17:18:27.756Z,100956.03
2022-10-03T17:20:54.217Z,100956.81
2022-10-03T17:23:20.494Z,100961.34
2022-10-03T17:25:46.766Z,100956.88
2022-10-03T17:28:13.054Z,100957.28
2022-10-03T17:30:39.563Z,100970.88
2022-10-03T17:33:05.812Z,100963.28
2022-10-03T17:35:32.058Z,100967.88
2022-10-03T17:37:58.336Z,100964.81
2022-10-03T17:40:24.587Z,100969.09
2022-10-03T17:42:50.849Z,100964.34
2022-10-03T17:45:17.140Z,100969.16
2022-10-03T17:47:43.441Z,100961.91
2022-10-03T17:50:10.159Z,100970.13
2022-10-03T17:52:37.231Z,100965.44
2022-10-03T17:55:03.482Z,100964.34
2022-10-03T17:57:29.844Z,100967.75
2022-10-03T17:59:56.156Z,100969.69
2022-10-03T18:02:22.466Z,100970.94
2022-10-03T18:04:48.868Z,100972.94
2022-10-03T18:07:15.138Z,100970.00
2022-10-03T18:09:41.500Z,100970.50
2022-10-03T18:12:08.002Z,100968.19
2022-10-03T18:14:34.256Z,100971.69
2022-10-03T18:17:00.515Z,100973.34
2022-10-03T18:19:26.983Z,100972.41
2022-10-03T18:21:54.350Z,100974.59
2022-10-03T18:24:20.604Z,100969.56
2022-10-03T18:26:46.998Z,100977.25
2022-10-03T18:29:13.328Z,100970.25
2022-10-03T18:31:41.000Z,100977.00
2022-10-03T18:34:12.870Z,100978.50
2022-10-03T18:36:40.091Z,100973.09
2022-10-03T18:39:06.404Z,100976.41
2022-10-03T18:41:32.671Z,100985.69
2022-10-03T18:43:59.782Z,100988.31
2022-10-03T18:46:30.253Z,100979.53
2022-10-03T18:49:24.076Z,100980.41
2022-10-03T18:51:43.229Z,100974.91
2022-10-03T18:54:09.503Z,100973.22
2022-10-03T18:56:35.795Z,100979.63
2022-10-03T18:59:02.342Z,100974.63
2022-10-03T19:01:30.550Z,100970.97
2022-10-03T19:03:56.971Z,100974.00
2022-10-03T19:06:23.229Z,100971.72
2022-10-03T19:08:49.499Z,100971.94
2022-10-03T19:11:15.757Z,100963.44
2022-10-03T19:13:42.046Z,100964.97
2022-10-03T19:16:08.339Z,100963.38
2022-10-03T19:18:35.462Z,100964.03
2022-10-03T19:21:01.661Z,100966.88
2022-10-03T19:23:28.144Z,100968.06
2022-10-03T19:25:56.523Z,100967.50
2022-10-03T19:28:22.938Z,100960.34
2022-10-03T19:30:49.302Z,100965.78
2022-10-03T19:33:15.621Z,100963.03
2022-10-03T19:35:42.988Z,100966.34
2022-10-03T19:38:09.249Z,100964.69
2022-10-03T19:40:35.582Z,100973.88
2022-10-03T19:43:02.243Z,100970.03
2022-10-03T19:45:28.543Z,100974.56
2022-10-03T19:47:56.401Z,100975.69
2022-10-03T19:50:22.655Z,100972.03
2022-10-03T19:52:48.913Z,100973.72
2022-10-03T19:55:15.740Z,100972.91
2022-10-03T19:57:42.027Z,100970.72
2022-10-03T20:00:08.771Z,100968.75
2022-10-03T20:02:35.135Z,100964.78
2022-10-03T20:05:01.401Z,100967.25
2022-10-03T20:07:27.708Z,100965.72
2022-10-03T20:09:53.967Z,100970.25
2022-10-03T20:12:20.243Z,100966.06
2022-10-03T20:14:47.100Z,100968.63
2022-10-03T20:17:13.610Z,100965.28
2022-10-03T20:19:40.736Z,100962.25
2022-10-03T20:22:06.952Z,100960.44
2022-10-03T20:24:33.259Z,100963.13
2022-10-03T20:26:59.532Z,100959.91
2022-10-03T20:29:25.791Z,100958.59
2022-10-03T20:31:52.142Z,100957.41
2022-10-03T20:34:18.446Z,100949.38
2022-10-03T20:36:44.763Z,100958.16
2022-10-03T20:39:11.093Z,100957.31
2022-10-03T20:41:37.780Z,100960.75
2022-10-03T20:44:04.134Z,100962.88
2022-10-03T20:46:30.457Z,100953.84
2022-10-03T20:48:58.988Z,100960.34
2022-10-03T20:51:25.341Z,100956.03
2022-10-03T20:53:53.174Z,100955.00
2022-10-03T20:56:19.443Z,100961.66
2022-10-03T20:58:50.237Z,100959.47
2022-10-03T21:01:17.190Z,100959.06
2022-10-03T21:03:43.544Z,100954.06
2022-10-03T21:06:14.258Z,100961.63
2022-10-03T21:08:41.230Z,100952.16
2022-10-03T21:11:07.494Z,100956.69
2022-10-03T21:13:33.771Z,100954.19
2022-10-03T21:16:00.093Z,100953.66
2022-10-03T21:18:26.434Z,100958.59
2022-10-03T21:20:52.682Z,100950.38
2022-10-03T21:23:18.992Z,100950.97
2022-10-03T21:25:45.294Z,100956.97
2022-10-03T21:28:11.592Z,100954.78
2022-10-03T21:30:37.895Z,100952.78
2022-10-03T21:33:04.163Z,100954.59
2022-10-03T21:35:30.482Z,100954.94
2022-10-03T21:37:56.753Z,100949.53
2022-10-03T21:40:23.097Z,100949.31
2022-10-03T21:42:53.379Z,100949.03
2022-10-03T21:45:19.637Z,100955.13
2022-10-03T21:47:45.910Z,100946.44
2022-10-03T21:50:12.173Z,100943.53
2022-10-03T21:52:38.430Z,100940.91
2022-10-03T21:55:04.707Z,100947.94
2022-10-03T21:57:31.000Z,100946.09
2022-10-03T21:59:57.259Z,100943.31
2022-10-03T22:02:23.543Z,100952.09
2022-10-03T22:04:49.828Z,100953.41
2022-10-03T22:07:16.118Z,100945.59
2022-10-03T22:09:42.392Z,100951.81
2022-10-03T22:12:08.630Z,100946.19
2022-10-03T22:14:34.902Z,100951.31
2022-10-03T22:17:01.176Z,100942.47
2022-10-03T22:19:27.446Z,100938.09
2022-10-03T22:21:53.705Z,100943.53
2022-10-03T22:24:19.978Z,100947.50
2022-10-03T22:26:46.231Z,100941.38
2022-10-03T22:29:12.492Z,100937.25
2022-10-03T22:31:39.021Z,100941.56
2022-10-03T22:34:05.560Z,100944.25
2022-10-03T22:36:32.011Z,100945.31
2022-10-03T22:38:58.267Z,100939.16
2022-10-03T22:41:24.753Z,100944.44
2022-10-03T22:43:51.085Z,100933.28
2022-10-03T22:46:18.064Z,100935.81
2022-10-03T22:48:44.346Z,100940.69
2022-10-03T22:51:10.608Z,100936.97
2022-10-03T22:53:36.862Z,100934.53
2022-10-03T22:56:03.283Z,100931.97
2022-10-03T22:58:29.562Z,100930.25
2022-10-03T23:00:56.086Z,100933.56
2022-10-03T23:03:22.461Z,100932.88
2022-10-03T23:05:48.766Z,100943.81
2022-10-03T23:08:15.012Z,100931.75
2022-10-03T23:10:41.466Z,100934.44
2022-10-03T23:13:07.767Z,100935.47
2022-10-03T23:15:34.056Z,100931.41
2022-10-03T23:18:00.398Z,100934.28
2022-10-03T23:20:26.656Z,100928.38
2022-10-03T23:22:53.299Z,100938.97
2022-10-03T23:25:19.553Z,100937.16
2022-10-03T23:27:45.881Z,100934.31
2022-10-03T23:30:12.141Z,100924.72
2022-10-03T23:32:38.409Z,100930.31
2022-10-03T23:35:04.726Z,100928.72
2022-10-03T23:37:31.028Z,100937.47
2022-10-03T23:39:57.281Z,100934.03
2022-10-03T23:42:23.864Z,100934.44
2022-10-03T23:44:50.501Z,100931.94
2022-10-03T23:47:16.760Z,100933.69
2022-10-03T23:49:43.014Z,100935.47
2022-10-03T23:52:09.301Z,100935.56
2022-10-03T23:54:35.554Z,100935.25
2022-10-03T23:57:01.814Z,100941.28
2022-10-03T23:59:28.062Z,100939.88
